createdAt,value
2022-12-31T00:01:04.149Z,13.1
2022-12-31T00:11:04.675Z,13.1
2022-12-31T00:51:07.276Z,13
2022-12-31T01:21:09.728Z,12.8
2022-12-31T01:41:10.881Z,12.8
2022-12-31T01:51:11.932Z,12.7
2022-12-31T02:11:12.722Z,12.7
2022-12-31T02:21:13.197Z,12.7
2022-12-31T02:41:14.633Z,13
2022-12-31T02:51:15.253Z,13.5
2022-12-31T03:01:15.506Z,14
2022-12-31T03:11:15.579Z,14.2
2022-12-31T03:21:16.114Z,14
2022-12-31T03:31:16.703Z,13.4
2022-12-31T03:41:17.484Z,13.1
2022-12-31T03:51:18.218Z,12.9
2022-12-31T04:01:18.907Z,12.8
2022-12-31T04:11:21.072Z,12.7
2022-12-31T04:21:20.020Z,12.6
2022-12-31T04:31:20.974Z,12.7
2022-12-31T04:41:21.798Z,12.8
2022-12-31T05:01:23.525Z,13.5
2022-12-31T05:21:24.416Z,14.4
2022-12-31T06:31:28.731Z,16.1
2022-12-31T06:51:30.049Z,16.1
2022-12-31T07:01:30.216Z,16.2
2022-12-31T07:31:31.181Z,16.5
2022-12-31T07:41:31.712Z,16.7
2022-12-31T08:31:34.259Z,16.6
2022-12-31T08:41:39.100Z,16.6
2022-12-31T08:51:35.964Z,16.6
2022-12-31T09:11:36.886Z,16.7
2022-12-31T09:21:37.231Z,16.9
2022-12-31T09:31:38.217Z,17
2022-12-31T10:01:40.038Z,16.9
2022-12-31T10:11:40.798Z,16.8
2022-12-31T10:21:41.090Z,16.7
2022-12-31T10:31:41.203Z,16.8
2022-12-31T10:41:41.455Z,16.9
2022-12-31T10:51:41.664Z,17
2022-12-31T11:11:43.200Z,17.3
2022-12-31T11:21:43.965Z,17.3
2022-12-31T11:31:44.275Z,17.4
2022-12-31T11:51:50.118Z,17.4
2022-12-31T12:01:45.845Z,17.5
2022-12-31T12:11:46.691Z,17.5
2022-12-31T12:21:46.762Z,17.5
2022-12-31T12:31:47.580Z,17.5
2022-12-31T12:51:48.561Z,17.3
2022-12-31T13:01:49.371Z,17.3
2022-12-31T13:11:49.970Z,16.8
2022-12-31T13:31:51.311Z,16.8
2022-12-31T13:41:52.100Z,16.8
2022-12-31T13:51:53.070Z,16.9
2022-12-31T14:01:53.601Z,17
2022-12-31T14:11:54.459Z,16.9
2022-12-31T14:21:55.030Z,16.8
2022-12-31T14:31:55.653Z,16.6
2022-12-31T15:01:58.198Z,16.7
2022-12-31T15:11:58.231Z,16.7
2022-12-31T15:21:58.621Z,16.7
2022-12-31T15:31:59.373Z,16.6
2022-12-31T15:52:00.568Z,16.1
2022-12-31T16:02:01.229Z,16.1
2022-12-31T16:12:01.799Z,16
2022-12-31T16:22:02.706Z,15.9
2022-12-31T16:32:03.145Z,15.9
2022-12-31T16:42:04.138Z,16.1
2022-12-31T16:52:04.818Z,16.1
2022-12-31T17:02:05.467Z,16.2
2022-12-31T17:12:05.714Z,16.4
2022-12-31T17:32:05.770Z,16.4
2022-12-31T17:42:06.295Z,16.5
2022-12-31T18:02:07.370Z,16.4
2022-12-31T18:12:08.232Z,16.3
2022-12-31T18:22:08.665Z,16.3
2022-12-31T18:42:10.258Z,16.2
2022-12-31T18:52:10.896Z,16
2022-12-31T19:02:11.190Z,16
2022-12-31T19:12:11.839Z,16
2022-12-31T19:22:12.468Z,16.1
2022-12-31T19:42:13.867Z,15.9
2022-12-31T19:52:14.173Z,16
2022-12-31T20:02:15.096Z,15.9
2022-12-31T20:12:15.225Z,15.9
2022-12-31T20:22:15.610Z,15.9
2022-12-31T20:32:16.517Z,15.9
2022-12-31T20:42:16.728Z,15.9
2022-12-31T20:52:17.683Z,15.9
2022-12-31T21:02:21.176Z,16.1
2022-12-31T21:22:19.393Z,16.4
2022-12-31T21:42:20.571Z,16.3
2022-12-31T21:52:21.233Z,16.5
2022-12-31T22:02:21.798Z,16.5
2022-12-31T22:12:22.339Z,16.7
2022-12-31T22:22:22.518Z,16.8
2022-12-31T22:32:22.747Z,16.8
2022-12-31T22:42:23.306Z,16.7
2022-12-31T22:52:24.194Z,16.8
2022-12-31T23:02:24.746Z,16.9
2022-12-31T23:12:25.158Z,17
2022-12-31T23:22:26.001Z,17.1
2022-12-31T23:32:26.868Z,17
2022-12-31T23:42:27.432Z,17.1
2022-12-31T23:52:27.654Z,17
